sensor_id;sensor_type;location;lat;lon;timestamp;temperature;humidity
68924;DHT22;55961;52.156;20.942;2023-09-30T00:00:53;17.00;68.20
68924;DHT22;55961;52.156;20.942;2023-09-30T00:03:30;17.00;68.30
68924;DHT22;55961;52.156;20.942;2023-09-30T00:05:56;16.90;68.50
68924;DHT22;55961;52.156;20.942;2023-09-30T00:08:22;17.00;68.50
68924;DHT22;55961;52.156;20.942;2023-09-30T00:10:48;16.90;68.70
68924;DHT22;55961;52.156;20.942;2023-09-30T00:13:14;16.90;68.80
68924;DHT22;55961;52.156;20.942;2023-09-30T00:15:40;16.90;68.80
68924;DHT22;55961;52.156;20.942;2023-09-30T00:18:06;16.90;68.90
68924;DHT22;55961;52.156;20.942;2023-09-30T00:20:32;16.90;69.00
68924;DHT22;55961;52.156;20.942;2023-09-30T00:22:58;16.90;69.00
68924;DHT22;55961;52.156;20.942;2023-09-30T00:25:24;16.90;69.10
68924;DHT22;55961;52.156;20.942;2023-09-30T00:27:50;16.90;69.00
68924;DHT22;55961;52.156;20.942;2023-09-30T00:30:16;16.90;69.00
68924;DHT22;55961;52.156;20.942;2023-09-30T00:32:42;16.90;69.00
68924;DHT22;55961;52.156;20.942;2023-09-30T00:35:09;16.90;69.00
68924;DHT22;55961;52.156;20.942;2023-09-30T00:37:40;16.90;69.10
68924;DHT22;55961;52.156;20.942;2023-09-30T00:40:07;16.90;69.20
68924;DHT22;55961;52.156;20.942;2023-09-30T00:42:38;16.90;69.20
68924;DHT22;55961;52.156;20.942;2023-09-30T00:45:04;16.90;69.10
68924;DHT22;55961;52.156;20.942;2023-09-30T00:47:31;16.90;69.20
68924;DHT22;55961;52.156;20.942;2023-09-30T00:49:59;16.90;69.20
68924;DHT22;55961;52.156;20.942;2023-09-30T00:52:25;16.90;69.10
68924;DHT22;55961;52.156;20.942;2023-09-30T00:54:52;16.90;69.10
68924;DHT22;55961;52.156;20.942;2023-09-30T00:57:20;16.90;69.10
68924;DHT22;55961;52.156;20.942;2023-09-30T00:59:48;16.90;69.20
68924;DHT22;55961;52.156;20.942;2023-09-30T01:02:15;16.90;69.10
68924;DHT22;55961;52.156;20.942;2023-09-30T01:04:41;16.90;69.00
68924;DHT22;55961;52.156;20.942;2023-09-30T01:07:07;16.90;69.00
68924;DHT22;55961;52.156;20.942;2023-09-30T01:09:34;16.90;68.90
68924;DHT22;55961;52.156;20.942;2023-09-30T01:12:02;16.90;69.00
68924;DHT22;55961;52.156;20.942;2023-09-30T01:14:30;17.00;69.10
68924;DHT22;55961;52.156;20.942;2023-09-30T01:16:57;17.00;69.00
68924;DHT22;55961;52.156;20.942;2023-09-30T01:19:23;17.00;69.20
68924;DHT22;55961;52.156;20.942;2023-09-30T01:21:58;17.10;69.20
68924;DHT22;55961;52.156;20.942;2023-09-30T01:24:29;17.10;69.20
68924;DHT22;55961;52.156;20.942;2023-09-30T01:26:56;17.10;69.60
68924;DHT22;55961;52.156;20.942;2023-09-30T01:29:22;17.10;69.30
68924;DHT22;55961;52.156;20.942;2023-09-30T01:31:49;17.10;69.10
68924;DHT22;55961;52.156;20.942;2023-09-30T01:34:16;17.10;69.00
68924;DHT22;55961;52.156;20.942;2023-09-30T01:36:43;17.10;68.80
68924;DHT22;55961;52.156;20.942;2023-09-30T01:39:12;17.20;68.70
68924;DHT22;55961;52.156;20.942;2023-09-30T01:41:39;17.20;68.80
68924;DHT22;55961;52.156;20.942;2023-09-30T01:44:06;17.10;68.80
68924;DHT22;55961;52.156;20.942;2023-09-30T01:46:32;17.20;68.90
68924;DHT22;55961;52.156;20.942;2023-09-30T01:48:58;17.10;69.10
68924;DHT22;55961;52.156;20.942;2023-09-30T01:51:24;17.20;69.00
68924;DHT22;55961;52.156;20.942;2023-09-30T01:53:50;17.10;69.00
68924;DHT22;55961;52.156;20.942;2023-09-30T01:56:16;17.20;69.20
68924;DHT22;55961;52.156;20.942;2023-09-30T01:58:42;17.20;69.20
68924;DHT22;55961;52.156;20.942;2023-09-30T02:01:09;17.20;69.20
68924;DHT22;55961;52.156;20.942;2023-09-30T02:03:35;17.20;69.00
68924;DHT22;55961;52.156;20.942;2023-09-30T02:06:02;17.20;69.00
68924;DHT22;55961;52.156;20.942;2023-09-30T02:08:29;17.20;68.90
68924;DHT22;55961;52.156;20.942;2023-09-30T02:10:55;17.20;69.10
68924;DHT22;55961;52.156;20.942;2023-09-30T02:13:21;17.20;69.00
68924;DHT22;55961;52.156;20.942;2023-09-30T02:15:47;17.20;68.90
68924;DHT22;55961;52.156;20.942;2023-09-30T02:18:12;17.20;68.80
68924;DHT22;55961;52.156;20.942;2023-09-30T02:20:40;17.20;68.90
68924;DHT22;55961;52.156;20.942;2023-09-30T02:23:07;17.20;68.90
68924;DHT22;55961;52.156;20.942;2023-09-30T02:25:33;17.20;68.90
68924;DHT22;55961;52.156;20.942;2023-09-30T02:27:59;17.20;68.70
68924;DHT22;55961;52.156;20.942;2023-09-30T02:30:26;17.20;68.70
68924;DHT22;55961;52.156;20.942;2023-09-30T02:32:53;17.20;68.70
68924;DHT22;55961;52.156;20.942;2023-09-30T02:35:19;17.20;68.80
68924;DHT22;55961;52.156;20.942;2023-09-30T02:37:46;17.20;68.60
68924;DHT22;55961;52.156;20.942;2023-09-30T02:40:12;17.30;68.60
68924;DHT22;55961;52.156;20.942;2023-09-30T02:42:41;17.20;68.70
68924;DHT22;55961;52.156;20.942;2023-09-30T02:45:07;17.20;68.70
68924;DHT22;55961;52.156;20.942;2023-09-30T02:47:34;17.20;68.70
68924;DHT22;55961;52.156;20.942;2023-09-30T02:50:01;17.20;68.90
68924;DHT22;55961;52.156;20.942;2023-09-30T02:52:27;17.20;69.00
68924;DHT22;55961;52.156;20.942;2023-09-30T02:54:58;17.20;69.10
68924;DHT22;55961;52.156;20.942;2023-09-30T02:57:24;17.20;69.10
68924;DHT22;55961;52.156;20.942;2023-09-30T02:59:50;17.20;69.10
68924;DHT22;55961;52.156;20.942;2023-09-30T03:02:20;17.20;68.90
68924;DHT22;55961;52.156;20.942;2023-09-30T03:04:49;17.20;68.90
68924;DHT22;55961;52.156;20.942;2023-09-30T03:07:18;17.20;69.00
68924;DHT22;55961;52.156;20.942;2023-09-30T03:09:45;17.20;69.10
68924;DHT22;55961;52.156;20.942;2023-09-30T03:12:12;17.20;69.20
68924;DHT22;55961;52.156;20.942;2023-09-30T03:14:39;17.20;69.20
68924;DHT22;55961;52.156;20.942;2023-09-30T03:17:05;17.20;69.40
68924;DHT22;55961;52.156;20.942;2023-09-30T03:19:37;17.20;69.40
68924;DHT22;55961;52.156;20.942;2023-09-30T03:22:06;17.20;69.40
68924;DHT22;55961;52.156;20.942;2023-09-30T03:24:39;17.20;69.60
68924;DHT22;55961;52.156;20.942;2023-09-30T03:27:05;17.20;69.70
68924;DHT22;55961;52.156;20.942;2023-09-30T03:29:31;17.10;69.90
68924;DHT22;55961;52.156;20.942;2023-09-30T03:31:57;17.20;69.90
68924;DHT22;55961;52.156;20.942;2023-09-30T03:34:23;17.10;69.80
68924;DHT22;55961;52.156;20.942;2023-09-30T03:36:49;17.10;69.80
68924;DHT22;55961;52.156;20.942;2023-09-30T03:39:15;17.10;70.10
68924;DHT22;55961;52.156;20.942;2023-09-30T03:41:41;17.10;70.20
68924;DHT22;55961;52.156;20.942;2023-09-30T03:44:07;17.10;70.40
68924;DHT22;55961;52.156;20.942;2023-09-30T03:46:33;17.10;70.50
68924;DHT22;55961;52.156;20.942;2023-09-30T03:48:59;17.10;70.30
68924;DHT22;55961;52.156;20.942;2023-09-30T03:51:26;17.10;70.40
68924;DHT22;55961;52.156;20.942;2023-09-30T03:53:52;17.10;70.20
68924;DHT22;55961;52.156;20.942;2023-09-30T03:56:18;17.10;70.30
68924;DHT22;55961;52.156;20.942;2023-09-30T03:58:44;17.00;70.30
68924;DHT22;55961;52.156;20.942;2023-09-30T04:01:10;17.00;70.40
68924;DHT22;55961;52.156;20.942;2023-09-30T04:03:40;17.00;70.50
68924;DHT22;55961;52.156;20.942;2023-09-30T04:06:06;17.00;70.50
68924;DHT22;55961;52.156;20.942;2023-09-30T04:08:33;17.00;70.60
68924;DHT22;55961;52.156;20.942;2023-09-30T04:11:00;17.00;70.50
68924;DHT22;55961;52.156;20.942;2023-09-30T04:13:26;17.00;70.60
68924;DHT22;55961;52.156;20.942;2023-09-30T04:15:53;17.00;70.70
68924;DHT22;55961;52.156;20.942;2023-09-30T04:18:19;17.00;70.80
68924;DHT22;55961;52.156;20.942;2023-09-30T04:20:48;17.00;70.80
68924;DHT22;55961;52.156;20.942;2023-09-30T04:23:14;17.00;70.80
68924;DHT22;55961;52.156;20.942;2023-09-30T04:25:40;17.00;71.00
68924;DHT22;55961;52.156;20.942;2023-09-30T04:28:09;17.00;70.90
68924;DHT22;55961;52.156;20.942;2023-09-30T04:30:35;17.00;71.00
68924;DHT22;55961;52.156;20.942;2023-09-30T04:33:01;17.00;70.90
68924;DHT22;55961;52.156;20.942;2023-09-30T04:35:30;17.00;71.00
68924;DHT22;55961;52.156;20.942;2023-09-30T04:37:57;17.00;71.20
68924;DHT22;55961;52.156;20.942;2023-09-30T04:40:30;17.00;71.70
68924;DHT22;55961;52.156;20.942;2023-09-30T04:42:56;17.10;71.60
68924;DHT22;55961;52.156;20.942;2023-09-30T04:45:27;17.10;71.30
68924;DHT22;55961;52.156;20.942;2023-09-30T04:47:53;17.10;71.00
68924;DHT22;55961;52.156;20.942;2023-09-30T04:50:22;17.10;70.80
68924;DHT22;55961;52.156;20.942;2023-09-30T04:52:48;17.10;70.80
68924;DHT22;55961;52.156;20.942;2023-09-30T04:55:15;17.20;70.90
68924;DHT22;55961;52.156;20.942;2023-09-30T04:57:48;17.20;70.80
68924;DHT22;55961;52.156;20.942;2023-09-30T05:00:15;17.20;70.40
68924;DHT22;55961;52.156;20.942;2023-09-30T05:02:46;17.20;70.20
68924;DHT22;55961;52.156;20.942;2023-09-30T05:05:12;17.20;70.10
68924;DHT22;55961;52.156;20.942;2023-09-30T05:07:38;17.20;70.10
68924;DHT22;55961;52.156;20.942;2023-09-30T05:10:04;17.20;70.20
68924;DHT22;55961;52.156;20.942;2023-09-30T05:12:37;17.10;70.30
68924;DHT22;55961;52.156;20.942;2023-09-30T05:15:03;17.10;70.30
68924;DHT22;55961;52.156;20.942;2023-09-30T05:17:32;17.10;70.20
68924;DHT22;55961;52.156;20.942;2023-09-30T05:19:58;17.10;70.20
68924;DHT22;55961;52.156;20.942;2023-09-30T05:22:24;17.10;70.30
68924;DHT22;55961;52.156;20.942;2023-09-30T05:24:51;17.10;70.40
68924;DHT22;55961;52.156;20.942;2023-09-30T05:27:18;17.10;70.40
68924;DHT22;55961;52.156;20.942;2023-09-30T05:29:44;17.10;70.30
68924;DHT22;55961;52.156;20.942;2023-09-30T05:32:10;17.10;71.10
68924;DHT22;55961;52.156;20.942;2023-09-30T05:34:36;17.10;70.70
68924;DHT22;55961;52.156;20.942;2023-09-30T05:37:05;17.10;70.70
68924;DHT22;55961;52.156;20.942;2023-09-30T05:39:31;17.10;70.50
68924;DHT22;55961;52.156;20.942;2023-09-30T05:42:01;17.20;70.70
68924;DHT22;55961;52.156;20.942;2023-09-30T05:44:26;17.20;70.90
68924;DHT22;55961;52.156;20.942;2023-09-30T05:46:53;17.10;71.10
68924;DHT22;55961;52.156;20.942;2023-09-30T05:49:20;17.20;71.40
68924;DHT22;55961;52.156;20.942;2023-09-30T05:51:46;17.20;71.50
68924;DHT22;55961;52.156;20.942;2023-09-30T05:54:12;17.20;71.80
68924;DHT22;55961;52.156;20.942;2023-09-30T05:56:39;17.20;72.10
68924;DHT22;55961;52.156;20.942;2023-09-30T05:59:08;17.20;72.30
68924;DHT22;55961;52.156;20.942;2023-09-30T06:01:34;17.20;72.60
68924;DHT22;55961;52.156;20.942;2023-09-30T06:04:02;17.20;72.50
68924;DHT22;55961;52.156;20.942;2023-09-30T06:06:28;17.20;72.70
68924;DHT22;55961;52.156;20.942;2023-09-30T06:08:56;17.20;72.80
68924;DHT22;55961;52.156;20.942;2023-09-30T06:11:25;17.30;72.90
68924;DHT22;55961;52.156;20.942;2023-09-30T06:13:57;17.30;73.10
68924;DHT22;55961;52.156;20.942;2023-09-30T06:16:27;17.30;73.50
68924;DHT22;55961;52.156;20.942;2023-09-30T06:18:53;17.40;73.80
68924;DHT22;55961;52.156;20.942;2023-09-30T06:21:21;17.40;74.30
68924;DHT22;55961;52.156;20.942;2023-09-30T06:23:50;17.40;74.70
68924;DHT22;55961;52.156;20.942;2023-09-30T06:26:19;17.40;75.00
68924;DHT22;55961;52.156;20.942;2023-09-30T06:28:46;17.40;75.30
68924;DHT22;55961;52.156;20.942;2023-09-30T06:31:14;17.40;75.70
68924;DHT22;55961;52.156;20.942;2023-09-30T06:33:41;17.40;75.90
68924;DHT22;55961;52.156;20.942;2023-09-30T06:36:11;17.50;76.40
68924;DHT22;55961;52.156;20.942;2023-09-30T06:38:40;17.40;76.70
68924;DHT22;55961;52.156;20.942;2023-09-30T06:41:08;17.50;77.10
68924;DHT22;55961;52.156;20.942;2023-09-30T06:43:35;17.50;77.30
68924;DHT22;55961;52.156;20.942;2023-09-30T06:46:08;17.50;77.60
68924;DHT22;55961;52.156;20.942;2023-09-30T06:48:39;17.50;77.80
68924;DHT22;55961;52.156;20.942;2023-09-30T06:51:13;17.50;78.10
68924;DHT22;55961;52.156;20.942;2023-09-30T06:53:40;17.50;78.30
68924;DHT22;55961;52.156;20.942;2023-09-30T06:56:06;17.50;78.70
68924;DHT22;55961;52.156;20.942;2023-09-30T06:58:32;17.50;78.90
68924;DHT22;55961;52.156;20.942;2023-09-30T07:00:59;17.50;79.00
68924;DHT22;55961;52.156;20.942;2023-09-30T07:03:25;17.50;79.20
68924;DHT22;55961;52.156;20.942;2023-09-30T07:05:51;17.50;79.40
68924;DHT22;55961;52.156;20.942;2023-09-30T07:08:17;17.50;79.50
68924;DHT22;55961;52.156;20.942;2023-09-30T07:10:44;17.50;79.70
68924;DHT22;55961;52.156;20.942;2023-09-30T07:13:12;17.50;79.80
68924;DHT22;55961;52.156;20.942;2023-09-30T07:15:38;17.50;80.00
68924;DHT22;55961;52.156;20.942;2023-09-30T07:18:04;17.50;80.30
68924;DHT22;55961;52.156;20.942;2023-09-30T07:20:30;17.50;80.60
68924;DHT22;55961;52.156;20.942;2023-09-30T07:23:01;17.50;80.80
68924;DHT22;55961;52.156;20.942;2023-09-30T07:25:29;17.50;81.10
68924;DHT22;55961;52.156;20.942;2023-09-30T07:27:58;17.50;81.40
68924;DHT22;55961;52.156;20.942;2023-09-30T07:30:26;17.50;81.80
68924;DHT22;55961;52.156;20.942;2023-09-30T07:32:52;17.50;81.70
68924;DHT22;55961;52.156;20.942;2023-09-30T07:35:18;17.50;81.90
68924;DHT22;55961;52.156;20.942;2023-09-30T07:37:44;17.50;82.10
68924;DHT22;55961;52.156;20.942;2023-09-30T07:40:14;17.60;82.40
68924;DHT22;55961;52.156;20.942;2023-09-30T07:42:42;17.60;82.40
68924;DHT22;55961;52.156;20.942;2023-09-30T07:45:09;17.60;82.80
68924;DHT22;55961;52.156;20.942;2023-09-30T07:47:35;17.60;82.90
68924;DHT22;55961;52.156;20.942;2023-09-30T07:50:01;17.60;82.90
68924;DHT22;55961;52.156;20.942;2023-09-30T07:52:35;17.70;83.30
68924;DHT22;55961;52.156;20.942;2023-09-30T07:55:02;17.70;83.40
68924;DHT22;55961;52.156;20.942;2023-09-30T07:57:30;17.70;83.50
68924;DHT22;55961;52.156;20.942;2023-09-30T07:59:56;17.80;83.50
68924;DHT22;55961;52.156;20.942;2023-09-30T08:02:22;17.80;83.50
68924;DHT22;55961;52.156;20.942;2023-09-30T08:04:50;17.90;83.70
68924;DHT22;55961;52.156;20.942;2023-09-30T08:07:16;18.00;83.30
68924;DHT22;55961;52.156;20.942;2023-09-30T08:09:42;18.10;83.00
68924;DHT22;55961;52.156;20.942;2023-09-30T08:12:08;18.10;82.90
68924;DHT22;55961;52.156;20.942;2023-09-30T08:14:34;18.20;82.70
68924;DHT22;55961;52.156;20.942;2023-09-30T08:17:00;18.20;82.50
68924;DHT22;55961;52.156;20.942;2023-09-30T08:19:26;18.30;82.60
68924;DHT22;55961;52.156;20.942;2023-09-30T08:21:52;18.30;82.50
68924;DHT22;55961;52.156;20.942;2023-09-30T08:24:18;18.30;82.30
68924;DHT22;55961;52.156;20.942;2023-09-30T08:26:43;18.30;82.20
68924;DHT22;55961;52.156;20.942;2023-09-30T08:29:10;18.40;82.20
68924;DHT22;55961;52.156;20.942;2023-09-30T08:31:36;18.40;82.20
68924;DHT22;55961;52.156;20.942;2023-09-30T08:34:02;18.40;82.20
68924;DHT22;55961;52.156;20.942;2023-09-30T08:36:29;18.40;82.00
68924;DHT22;55961;52.156;20.942;2023-09-30T08:38:56;18.40;82.00
68924;DHT22;55961;52.156;20.942;2023-09-30T08:41:33;18.50;82.20
68924;DHT22;55961;52.156;20.942;2023-09-30T08:44:01;18.50;82.00
68924;DHT22;55961;52.156;20.942;2023-09-30T08:46:32;18.50;81.70
68924;DHT22;55961;52.156;20.942;2023-09-30T08:49:03;18.50;81.60
68924;DHT22;55961;52.156;20.942;2023-09-30T08:51:30;18.50;81.70
68924;DHT22;55961;52.156;20.942;2023-09-30T08:53:58;18.50;81.80
68924;DHT22;55961;52.156;20.942;2023-09-30T08:56:28;18.50;81.70
68924;DHT22;55961;52.156;20.942;2023-09-30T08:58:58;18.50;81.90
68924;DHT22;55961;52.156;20.942;2023-09-30T09:01:29;18.50;82.00
68924;DHT22;55961;52.156;20.942;2023-09-30T09:03:56;18.50;81.90
68924;DHT22;55961;52.156;20.942;2023-09-30T09:06:23;18.50;82.10
68924;DHT22;55961;52.156;20.942;2023-09-30T09:08:51;18.50;82.20
68924;DHT22;55961;52.156;20.942;2023-09-30T09:11:17;18.50;82.20
68924;DHT22;55961;52.156;20.942;2023-09-30T09:13:48;18.50;82.30
68924;DHT22;55961;52.156;20.942;2023-09-30T09:16:16;18.50;82.40
68924;DHT22;55961;52.156;20.942;2023-09-30T09:18:44;18.50;82.70
68924;DHT22;55961;52.156;20.942;2023-09-30T09:23:45;18.50;83.00
68924;DHT22;55961;52.156;20.942;2023-09-30T09:26:33;18.50;83.40
68924;DHT22;55961;52.156;20.942;2023-09-30T09:29:02;18.50;83.70
68924;DHT22;55961;52.156;20.942;2023-09-30T09:31:34;18.50;83.80
68924;DHT22;55961;52.156;20.942;2023-09-30T09:34:03;18.40;84.30
68924;DHT22;55961;52.156;20.942;2023-09-30T09:36:44;18.40;84.50
68924;DHT22;55961;52.156;20.942;2023-09-30T09:39:11;18.40;84.50
68924;DHT22;55961;52.156;20.942;2023-09-30T09:41:49;18.40;84.50
68924;DHT22;55961;52.156;20.942;2023-09-30T09:44:21;18.40;84.60
68924;DHT22;55961;52.156;20.942;2023-09-30T09:46:48;18.40;85.00
68924;DHT22;55961;52.156;20.942;2023-09-30T09:49:17;18.40;85.30
68924;DHT22;55961;52.156;20.942;2023-09-30T09:51:47;18.40;85.70
68924;DHT22;55961;52.156;20.942;2023-09-30T09:54:15;18.30;86.20
68924;DHT22;55961;52.156;20.942;2023-09-30T09:56:44;18.30;86.60
68924;DHT22;55961;52.156;20.942;2023-09-30T09:59:12;18.30;87.00
68924;DHT22;55961;52.156;20.942;2023-09-30T10:01:40;18.30;87.20
68924;DHT22;55961;52.156;20.942;2023-09-30T10:04:06;18.20;87.40
68924;DHT22;55961;52.156;20.942;2023-09-30T10:06:34;18.20;87.60
68924;DHT22;55961;52.156;20.942;2023-09-30T10:09:07;18.20;87.90
68924;DHT22;55961;52.156;20.942;2023-09-30T10:11:35;18.10;88.20
68924;DHT22;55961;52.156;20.942;2023-09-30T10:14:01;18.10;88.70
68924;DHT22;55961;52.156;20.942;2023-09-30T10:19:13;18.10;88.50
68924;DHT22;55961;52.156;20.942;2023-09-30T10:21:40;18.10;88.10
68924;DHT22;55961;52.156;20.942;2023-09-30T10:40:51;17.80;86.20
68924;DHT22;55961;52.156;20.942;2023-09-30T10:43:34;17.80;86.10
68924;DHT22;55961;52.156;20.942;2023-09-30T10:46:02;17.70;86.10
68924;DHT22;55961;52.156;20.942;2023-09-30T10:50:56;17.70;86.70
68924;DHT22;55961;52.156;20.942;2023-09-30T10:53:23;17.60;86.50
68924;DHT22;55961;52.156;20.942;2023-09-30T10:55:57;17.60;86.50
68924;DHT22;55961;52.156;20.942;2023-09-30T10:58:43;17.60;86.10
68924;DHT22;55961;52.156;20.942;2023-09-30T11:01:10;17.50;86.00
68924;DHT22;55961;52.156;20.942;2023-09-30T11:03:36;17.50;86.00
68924;DHT22;55961;52.156;20.942;2023-09-30T11:06:02;17.50;85.90
68924;DHT22;55961;52.156;20.942;2023-09-30T11:08:30;17.40;85.70
68924;DHT22;55961;52.156;20.942;2023-09-30T11:10:56;17.40;85.70
68924;DHT22;55961;52.156;20.942;2023-09-30T11:13:22;17.40;85.60
68924;DHT22;55961;52.156;20.942;2023-09-30T11:16:03;17.30;85.00
68924;DHT22;55961;52.156;20.942;2023-09-30T11:18:30;17.30;84.20
68924;DHT22;55961;52.156;20.942;2023-09-30T11:23:33;17.20;84.00
68924;DHT22;55961;52.156;20.942;2023-09-30T11:25:59;17.20;83.90
68924;DHT22;55961;52.156;20.942;2023-09-30T11:28:25;17.20;84.30
68924;DHT22;55961;52.156;20.942;2023-09-30T11:31:01;17.20;83.30
68924;DHT22;55961;52.156;20.942;2023-09-30T11:33:50;17.20;83.20
68924;DHT22;55961;52.156;20.942;2023-09-30T11:36:21;17.30;83.80
68924;DHT22;55961;52.156;20.942;2023-09-30T11:38:50;17.30;83.40
68924;DHT22;55961;52.156;20.942;2023-09-30T11:41:18;17.30;82.90
68924;DHT22;55961;52.156;20.942;2023-09-30T11:44:04;17.40;82.60
68924;DHT22;55961;52.156;20.942;2023-09-30T11:46:31;17.40;82.70
68924;DHT22;55961;52.156;20.942;2023-09-30T11:49:03;17.50;82.60
68924;DHT22;55961;52.156;20.942;2023-09-30T11:51:42;17.50;82.50
68924;DHT22;55961;52.156;20.942;2023-09-30T11:54:11;17.60;82.20
68924;DHT22;55961;52.156;20.942;2023-09-30T11:56:40;17.60;81.50
68924;DHT22;55961;52.156;20.942;2023-09-30T11:59:06;17.70;80.60
68924;DHT22;55961;52.156;20.942;2023-09-30T12:01:32;17.70;80.30
68924;DHT22;55961;52.156;20.942;2023-09-30T12:03:59;17.80;80.20
68924;DHT22;55961;52.156;20.942;2023-09-30T12:06:25;17.90;79.90
68924;DHT22;55961;52.156;20.942;2023-09-30T12:08:51;17.90;79.90
68924;DHT22;55961;52.156;20.942;2023-09-30T12:11:18;18.10;78.30
68924;DHT22;55961;52.156;20.942;2023-09-30T12:13:44;18.20;78.40
68924;DHT22;55961;52.156;20.942;2023-09-30T12:16:11;18.30;78.10
68924;DHT22;55961;52.156;20.942;2023-09-30T12:18:39;18.40;76.50
68924;DHT22;55961;52.156;20.942;2023-09-30T12:21:11;18.60;75.70
68924;DHT22;55961;52.156;20.942;2023-09-30T12:23:37;18.70;75.70
68924;DHT22;55961;52.156;20.942;2023-09-30T12:26:03;18.80;75.20
68924;DHT22;55961;52.156;20.942;2023-09-30T12:28:32;18.90;74.20
68924;DHT22;55961;52.156;20.942;2023-09-30T12:30:59;19.10;73.00
68924;DHT22;55961;52.156;20.942;2023-09-30T12:33:29;19.20;72.70
68924;DHT22;55961;52.156;20.942;2023-09-30T12:35:56;19.40;71.20
68924;DHT22;55961;52.156;20.942;2023-09-30T12:38:24;19.50;70.20
68924;DHT22;55961;52.156;20.942;2023-09-30T12:40:52;19.60;69.60
68924;DHT22;55961;52.156;20.942;2023-09-30T12:43:19;19.70;69.10
68924;DHT22;55961;52.156;20.942;2023-09-30T12:45:46;19.80;68.20
68924;DHT22;55961;52.156;20.942;2023-09-30T12:48:16;19.80;68.60
68924;DHT22;55961;52.156;20.942;2023-09-30T12:50:44;19.80;68.80
68924;DHT22;55961;52.156;20.942;2023-09-30T12:53:09;19.90;67.40
68924;DHT22;55961;52.156;20.942;2023-09-30T12:55:36;20.00;66.50
68924;DHT22;55961;52.156;20.942;2023-09-30T12:58:01;20.10;66.40
68924;DHT22;55961;52.156;20.942;2023-09-30T13:00:28;20.10;65.90
68924;DHT22;55961;52.156;20.942;2023-09-30T13:02:56;20.20;64.90
68924;DHT22;55961;52.156;20.942;2023-09-30T13:05:23;20.20;65.00
68924;DHT22;55961;52.156;20.942;2023-09-30T13:07:50;20.30;65.10
68924;DHT22;55961;52.156;20.942;2023-09-30T13:10:18;20.40;64.90
68924;DHT22;55961;52.156;20.942;2023-09-30T13:12:45;20.50;62.60
68924;DHT22;55961;52.156;20.942;2023-09-30T13:15:11;20.70;62.10
68924;DHT22;55961;52.156;20.942;2023-09-30T13:17:36;20.80;59.70
68924;DHT22;55961;52.156;20.942;2023-09-30T13:20:02;21.00;57.60
68924;DHT22;55961;52.156;20.942;2023-09-30T13:22:34;21.10;57.80
68924;DHT22;55961;52.156;20.942;2023-09-30T13:25:04;21.30;56.40
68924;DHT22;55961;52.156;20.942;2023-09-30T13:27:31;21.40;56.20
68924;DHT22;55961;52.156;20.942;2023-09-30T13:29:58;21.40;55.70
68924;DHT22;55961;52.156;20.942;2023-09-30T13:32:25;21.50;55.40
68924;DHT22;55961;52.156;20.942;2023-09-30T13:34:52;21.50;55.70
68924;DHT22;55961;52.156;20.942;2023-09-30T13:37:18;21.50;54.90
68924;DHT22;55961;52.156;20.942;2023-09-30T13:39:44;21.60;54.50
68924;DHT22;55961;52.156;20.942;2023-09-30T13:42:10;21.60;54.30
68924;DHT22;55961;52.156;20.942;2023-09-30T13:44:36;21.50;53.10
68924;DHT22;55961;52.156;20.942;2023-09-30T13:47:04;21.50;53.30
68924;DHT22;55961;52.156;20.942;2023-09-30T13:49:30;21.40;52.90
68924;DHT22;55961;52.156;20.942;2023-09-30T13:51:56;21.30;53.50
68924;DHT22;55961;52.156;20.942;2023-09-30T13:54:22;21.20;52.80
68924;DHT22;55961;52.156;20.942;2023-09-30T13:56:49;21.20;52.90
68924;DHT22;55961;52.156;20.942;2023-09-30T13:59:15;21.20;52.50
68924;DHT22;55961;52.156;20.942;2023-09-30T14:01:41;21.10;51.70
68924;DHT22;55961;52.156;20.942;2023-09-30T14:04:08;21.10;51.70
68924;DHT22;55961;52.156;20.942;2023-09-30T14:06:33;21.10;51.90
68924;DHT22;55961;52.156;20.942;2023-09-30T14:08:59;21.10;51.60
68924;DHT22;55961;52.156;20.942;2023-09-30T14:11:28;21.10;50.80
68924;DHT22;55961;52.156;20.942;2023-09-30T14:13:56;21.10;50.90
68924;DHT22;55961;52.156;20.942;2023-09-30T14:16:22;21.00;51.30
68924;DHT22;55961;52.156;20.942;2023-09-30T14:18:48;21.00;51.30
68924;DHT22;55961;52.156;20.942;2023-09-30T14:21:14;21.00;50.40
68924;DHT22;55961;52.156;20.942;2023-09-30T14:23:40;21.00;50.60
68924;DHT22;55961;52.156;20.942;2023-09-30T14:26:06;20.90;50.10
68924;DHT22;55961;52.156;20.942;2023-09-30T14:28:37;20.90;49.60
68924;DHT22;55961;52.156;20.942;2023-09-30T14:31:04;20.80;49.60
68924;DHT22;55961;52.156;20.942;2023-09-30T14:33:30;20.70;49.30
68924;DHT22;55961;52.156;20.942;2023-09-30T14:35:58;20.70;49.40
68924;DHT22;55961;52.156;20.942;2023-09-30T14:38:25;20.60;50.10
68924;DHT22;55961;52.156;20.942;2023-09-30T14:40:51;20.60;49.80
68924;DHT22;55961;52.156;20.942;2023-09-30T14:43:17;20.60;49.70
68924;DHT22;55961;52.156;20.942;2023-09-30T14:45:43;20.50;49.80
68924;DHT22;55961;52.156;20.942;2023-09-30T14:48:09;20.50;50.30
68924;DHT22;55961;52.156;20.942;2023-09-30T14:50:35;20.40;50.50
68924;DHT22;55961;52.156;20.942;2023-09-30T14:53:03;20.40;51.00
68924;DHT22;55961;52.156;20.942;2023-09-30T14:55:31;20.30;51.30
68924;DHT22;55961;52.156;20.942;2023-09-30T14:57:57;20.30;51.40
68924;DHT22;55961;52.156;20.942;2023-09-30T15:00:23;20.30;51.30
68924;DHT22;55961;52.156;20.942;2023-09-30T15:02:51;20.20;51.10
68924;DHT22;55961;52.156;20.942;2023-09-30T15:05:17;20.20;51.30
68924;DHT22;55961;52.156;20.942;2023-09-30T15:07:43;20.20;51.10
68924;DHT22;55961;52.156;20.942;2023-09-30T15:10:09;20.20;50.80
68924;DHT22;55961;52.156;20.942;2023-09-30T15:12:35;20.20;51.10
68924;DHT22;55961;52.156;20.942;2023-09-30T15:15:01;20.10;51.40
68924;DHT22;55961;52.156;20.942;2023-09-30T15:17:29;20.10;51.30
68924;DHT22;55961;52.156;20.942;2023-09-30T15:19:55;20.10;51.50
68924;DHT22;55961;52.156;20.942;2023-09-30T15:22:23;20.00;51.70
68924;DHT22;55961;52.156;20.942;2023-09-30T15:24:49;19.90;51.90
68924;DHT22;55961;52.156;20.942;2023-09-30T15:27:15;19.90;51.80
68924;DHT22;55961;52.156;20.942;2023-09-30T15:29:41;19.80;52.00
68924;DHT22;55961;52.156;20.942;2023-09-30T15:32:07;19.80;51.80
68924;DHT22;55961;52.156;20.942;2023-09-30T15:34:36;19.70;52.00
68924;DHT22;55961;52.156;20.942;2023-09-30T15:37:04;19.70;52.00
68924;DHT22;55961;52.156;20.942;2023-09-30T15:39:37;19.70;52.30
68924;DHT22;55961;52.156;20.942;2023-09-30T15:42:04;19.60;51.80
68924;DHT22;55961;52.156;20.942;2023-09-30T15:44:30;19.60;52.20